sensor_id;sensor_type;location;lat;lon;timestamp;P1;durP1;ratioP1;P2;durP2;ratioP2
66384;SDS011;53426;55.872;37.462;2023-02-01T00:00:21;15.63;;;9.63;;
66384;SDS011;53426;55.872;37.462;2023-02-01T00:02:47;21.73;;;8.75;;
66384;SDS011;53426;55.872;37.462;2023-02-01T00:05:13;17.45;;;10.68;;
66384;SDS011;53426;55.872;37.462;2023-02-01T00:07:39;16.05;;;11.07;;
66384;SDS011;53426;55.872;37.462;2023-02-01T00:10:05;17.58;;;10.20;;
66384;SDS011;53426;55.872;37.462;2023-02-01T00:12:32;18.05;;;10.00;;
66384;SDS011;53426;55.872;37.462;2023-02-01T00:14:58;18.40;;;11.18;;
66384;SDS011;53426;55.872;37.462;2023-02-01T00:17:24;16.23;;;9.85;;
66384;SDS011;53426;55.872;37.462;2023-02-01T00:19:50;20.05;;;10.27;;
66384;SDS011;53426;55.872;37.462;2023-02-01T00:22:16;18.80;;;11.05;;
66384;SDS011;53426;55.872;37.462;2023-02-01T00:24:41;21.25;;;12.02;;
66384;SDS011;53426;55.872;37.462;2023-02-01T00:27:07;17.95;;;11.45;;
66384;SDS011;53426;55.872;37.462;2023-02-01T00:29:33;16.00;;;9.00;;
66384;SDS011;53426;55.872;37.462;2023-02-01T00:31:59;17.00;;;11.20;;
66384;SDS011;53426;55.872;37.462;2023-02-01T00:34:26;20.95;;;12.20;;
66384;SDS011;53426;55.872;37.462;2023-02-01T00:36:51;20.15;;;11.48;;
66384;SDS011;53426;55.872;37.462;2023-02-01T00:39:17;22.08;;;10.85;;
66384;SDS011;53426;55.872;37.462;2023-02-01T00:41:44;17.48;;;11.00;;
66384;SDS011;53426;55.872;37.462;2023-02-01T00:44:10;21.70;;;11.65;;
66384;SDS011;53426;55.872;37.462;2023-02-01T00:46:35;20.02;;;10.25;;
66384;SDS011;53426;55.872;37.462;2023-02-01T00:49:02;17.05;;;10.95;;
66384;SDS011;53426;55.872;37.462;2023-02-01T00:51:29;22.85;;;11.02;;
66384;SDS011;53426;55.872;37.462;2023-02-01T00:53:55;16.98;;;9.90;;
66384;SDS011;53426;55.872;37.462;2023-02-01T00:56:22;16.77;;;9.73;;
66384;SDS011;53426;55.872;37.462;2023-02-01T00:58:48;19.80;;;10.65;;
66384;SDS011;53426;55.872;37.462;2023-02-01T01:01:18;19.60;;;9.70;;
66384;SDS011;53426;55.872;37.462;2023-02-01T01:03:53;19.08;;;11.88;;
66384;SDS011;53426;55.872;37.462;2023-02-01T01:06:26;16.33;;;10.20;;
66384;SDS011;53426;55.872;37.462;2023-02-01T01:08:57;14.52;;;8.85;;
66384;SDS011;53426;55.872;37.462;2023-02-01T01:11:29;19.05;;;11.82;;
66384;SDS011;53426;55.872;37.462;2023-02-01T01:13:57;34.28;;;12.27;;
66384;SDS011;53426;55.872;37.462;2023-02-01T01:16:26;18.55;;;11.32;;
66384;SDS011;53426;55.872;37.462;2023-02-01T01:18:54;20.75;;;11.30;;
66384;SDS011;53426;55.872;37.462;2023-02-01T01:21:21;17.00;;;10.55;;
66384;SDS011;53426;55.872;37.462;2023-02-01T01:23:47;18.30;;;10.65;;
66384;SDS011;53426;55.872;37.462;2023-02-01T01:26:14;16.02;;;10.23;;
66384;SDS011;53426;55.872;37.462;2023-02-01T01:28:42;21.13;;;11.57;;
66384;SDS011;53426;55.872;37.462;2023-02-01T01:31:09;21.00;;;11.80;;
66384;SDS011;53426;55.872;37.462;2023-02-01T01:33:36;19.10;;;10.82;;
66384;SDS011;53426;55.872;37.462;2023-02-01T01:36:06;17.52;;;10.40;;
66384;SDS011;53426;55.872;37.462;2023-02-01T01:38:36;14.93;;;9.48;;
66384;SDS011;53426;55.872;37.462;2023-02-01T01:41:03;15.20;;;10.48;;
66384;SDS011;53426;55.872;37.462;2023-02-01T01:46:21;18.05;;;10.75;;
66384;SDS011;53426;55.872;37.462;2023-02-01T01:48:50;18.35;;;9.82;;
66384;SDS011;53426;55.872;37.462;2023-02-01T01:51:24;18.42;;;10.00;;
66384;SDS011;53426;55.872;37.462;2023-02-01T01:53:55;21.35;;;11.32;;
66384;SDS011;53426;55.872;37.462;2023-02-01T01:56:35;14.75;;;10.13;;
66384;SDS011;53426;55.872;37.462;2023-02-01T01:59:02;14.38;;;9.45;;
66384;SDS011;53426;55.872;37.462;2023-02-01T02:01:28;18.77;;;10.93;;
66384;SDS011;53426;55.872;37.462;2023-02-01T02:03:54;17.20;;;10.20;;
66384;SDS011;53426;55.872;37.462;2023-02-01T02:06:32;16.65;;;10.73;;
66384;SDS011;53426;55.872;37.462;2023-02-01T02:09:13;18.77;;;11.20;;
66384;SDS011;53426;55.872;37.462;2023-02-01T02:11:40;18.85;;;10.57;;
66384;SDS011;53426;55.872;37.462;2023-02-01T02:14:07;15.57;;;9.60;;
66384;SDS011;53426;55.872;37.462;2023-02-01T02:17:06;17.50;;;10.23;;
66384;SDS011;53426;55.872;37.462;2023-02-01T02:22:48;17.52;;;9.77;;
66384;SDS011;53426;55.872;37.462;2023-02-01T02:39:11;16.30;;;9.60;;
66384;SDS011;53426;55.872;37.462;2023-02-01T02:44:49;19.90;;;10.95;;
66384;SDS011;53426;55.872;37.462;2023-02-01T02:48:13;20.00;;;10.57;;
66384;SDS011;53426;55.872;37.462;2023-02-01T02:56:43;20.15;;;9.75;;
66384;SDS011;53426;55.872;37.462;2023-02-01T02:59:27;25.05;;;10.00;;
66384;SDS011;53426;55.872;37.462;2023-02-01T03:02:14;24.20;;;10.68;;
66384;SDS011;53426;55.872;37.462;2023-02-01T03:05:00;18.45;;;10.05;;
66384;SDS011;53426;55.872;37.462;2023-02-01T03:10:57;37.33;;;10.00;;
66384;SDS011;53426;55.872;37.462;2023-02-01T03:13:09;15.63;;;8.68;;
66384;SDS011;53426;55.872;37.462;2023-02-01T03:16:01;16.70;;;10.40;;
66384;SDS011;53426;55.872;37.462;2023-02-01T03:18:57;17.50;;;10.10;;
66384;SDS011;53426;55.872;37.462;2023-02-01T03:21:29;19.08;;;9.75;;
66384;SDS011;53426;55.872;37.462;2023-02-01T03:26:33;19.77;;;10.95;;
66384;SDS011;53426;55.872;37.462;2023-02-01T03:29:09;17.77;;;11.05;;
66384;SDS011;53426;55.872;37.462;2023-02-01T03:31:41;17.45;;;9.85;;
66384;SDS011;53426;55.872;37.462;2023-02-01T03:34:07;18.10;;;10.30;;
66384;SDS011;53426;55.872;37.462;2023-02-01T03:36:37;15.65;;;10.05;;
66384;SDS011;53426;55.872;37.462;2023-02-01T03:41:47;19.13;;;10.50;;
66384;SDS011;53426;55.872;37.462;2023-02-01T03:44:23;18.10;;;10.57;;
66384;SDS011;53426;55.872;37.462;2023-02-01T03:47:11;16.27;;;9.05;;
66384;SDS011;53426;55.872;37.462;2023-02-01T03:52:25;24.60;;;10.82;;
66384;SDS011;53426;55.872;37.462;2023-02-01T03:55:02;20.58;;;9.90;;
66384;SDS011;53426;55.872;37.462;2023-02-01T03:57:32;14.05;;;9.40;;
66384;SDS011;53426;55.872;37.462;2023-02-01T04:00:14;16.92;;;9.93;;
66384;SDS011;53426;55.872;37.462;2023-02-01T04:02:44;22.15;;;11.27;;
66384;SDS011;53426;55.872;37.462;2023-02-01T04:05:10;19.52;;;10.73;;
66384;SDS011;53426;55.872;37.462;2023-02-01T04:07:41;17.42;;;11.00;;
66384;SDS011;53426;55.872;37.462;2023-02-01T04:10:07;17.48;;;11.13;;
66384;SDS011;53426;55.872;37.462;2023-02-01T04:12:34;18.92;;;10.80;;
66384;SDS011;53426;55.872;37.462;2023-02-01T04:15:00;17.92;;;11.50;;
66384;SDS011;53426;55.872;37.462;2023-02-01T04:17:29;25.70;;;10.43;;
66384;SDS011;53426;55.872;37.462;2023-02-01T04:19:55;25.05;;;11.38;;
66384;SDS011;53426;55.872;37.462;2023-02-01T04:22:20;17.05;;;10.75;;
66384;SDS011;53426;55.872;37.462;2023-02-01T04:24:47;17.17;;;10.80;;
66384;SDS011;53426;55.872;37.462;2023-02-01T04:27:13;20.52;;;11.98;;
66384;SDS011;53426;55.872;37.462;2023-02-01T04:29:39;21.45;;;11.95;;
66384;SDS011;53426;55.872;37.462;2023-02-01T04:32:10;21.35;;;11.98;;
66384;SDS011;53426;55.872;37.462;2023-02-01T04:34:36;24.65;;;12.30;;
66384;SDS011;53426;55.872;37.462;2023-02-01T04:37:02;23.38;;;12.55;;
66384;SDS011;53426;55.872;37.462;2023-02-01T04:39:28;19.75;;;11.02;;
66384;SDS011;53426;55.872;37.462;2023-02-01T04:41:54;20.80;;;11.27;;
66384;SDS011;53426;55.872;37.462;2023-02-01T04:44:19;18.17;;;9.73;;
66384;SDS011;53426;55.872;37.462;2023-02-01T04:46:46;20.02;;;11.25;;
66384;SDS011;53426;55.872;37.462;2023-02-01T04:49:12;25.50;;;11.00;;
66384;SDS011;53426;55.872;37.462;2023-02-01T04:51:39;23.17;;;11.50;;
66384;SDS011;53426;55.872;37.462;2023-02-01T04:54:06;21.85;;;11.93;;
66384;SDS011;53426;55.872;37.462;2023-02-01T04:56:32;16.80;;;11.65;;
66384;SDS011;53426;55.872;37.462;2023-02-01T04:59:00;21.08;;;11.23;;
66384;SDS011;53426;55.872;37.462;2023-02-01T05:01:27;20.30;;;11.48;;
66384;SDS011;53426;55.872;37.462;2023-02-01T05:03:54;19.17;;;11.35;;
66384;SDS011;53426;55.872;37.462;2023-02-01T05:06:20;23.23;;;11.82;;
66384;SDS011;53426;55.872;37.462;2023-02-01T05:08:46;21.38;;;13.05;;
66384;SDS011;53426;55.872;37.462;2023-02-01T05:11:13;23.33;;;12.30;;
66384;SDS011;53426;55.872;37.462;2023-02-01T05:13:57;18.15;;;10.68;;
66384;SDS011;53426;55.872;37.462;2023-02-01T05:16:24;18.50;;;11.48;;
66384;SDS011;53426;55.872;37.462;2023-02-01T05:18:51;23.92;;;11.93;;
66384;SDS011;53426;55.872;37.462;2023-02-01T05:21:16;24.23;;;12.40;;
66384;SDS011;53426;55.872;37.462;2023-02-01T05:23:42;19.92;;;10.65;;
66384;SDS011;53426;55.872;37.462;2023-02-01T05:26:27;20.92;;;10.73;;
66384;SDS011;53426;55.872;37.462;2023-02-01T05:28:53;21.00;;;11.60;;
66384;SDS011;53426;55.872;37.462;2023-02-01T05:31:19;27.33;;;12.23;;
66384;SDS011;53426;55.872;37.462;2023-02-01T05:33:45;18.05;;;11.27;;
66384;SDS011;53426;55.872;37.462;2023-02-01T05:36:11;21.30;;;12.52;;
66384;SDS011;53426;55.872;37.462;2023-02-01T05:38:36;19.02;;;11.27;;
66384;SDS011;53426;55.872;37.462;2023-02-01T05:41:02;29.25;;;13.18;;
66384;SDS011;53426;55.872;37.462;2023-02-01T05:43:28;23.42;;;12.98;;
66384;SDS011;53426;55.872;37.462;2023-02-01T05:45:54;22.98;;;13.65;;
66384;SDS011;53426;55.872;37.462;2023-02-01T05:48:20;19.83;;;12.23;;
66384;SDS011;53426;55.872;37.462;2023-02-01T05:50:45;34.75;;;13.57;;
66384;SDS011;53426;55.872;37.462;2023-02-01T05:53:12;24.02;;;12.13;;
66384;SDS011;53426;55.872;37.462;2023-02-01T05:55:38;29.85;;;13.57;;
66384;SDS011;53426;55.872;37.462;2023-02-01T05:58:04;22.85;;;12.98;;
66384;SDS011;53426;55.872;37.462;2023-02-01T06:00:31;24.58;;;13.55;;
66384;SDS011;53426;55.872;37.462;2023-02-01T06:02:57;22.95;;;13.45;;
66384;SDS011;53426;55.872;37.462;2023-02-01T06:05:22;23.30;;;13.95;;
66384;SDS011;53426;55.872;37.462;2023-02-01T06:07:48;42.20;;;15.13;;
66384;SDS011;53426;55.872;37.462;2023-02-01T06:10:17;27.95;;;13.32;;
66384;SDS011;53426;55.872;37.462;2023-02-01T06:12:44;24.13;;;12.95;;
66384;SDS011;53426;55.872;37.462;2023-02-01T06:15:13;25.98;;;13.48;;
66384;SDS011;53426;55.872;37.462;2023-02-01T06:17:44;24.83;;;12.35;;
66384;SDS011;53426;55.872;37.462;2023-02-01T06:20:11;25.77;;;12.80;;
66384;SDS011;53426;55.872;37.462;2023-02-01T06:22:39;34.95;;;14.40;;
66384;SDS011;53426;55.872;37.462;2023-02-01T06:25:05;24.40;;;13.35;;
66384;SDS011;53426;55.872;37.462;2023-02-01T06:27:32;22.77;;;13.13;;
66384;SDS011;53426;55.872;37.462;2023-02-01T06:29:58;25.13;;;13.77;;
66384;SDS011;53426;55.872;37.462;2023-02-01T06:32:24;29.45;;;13.93;;
66384;SDS011;53426;55.872;37.462;2023-02-01T06:34:50;36.10;;;14.30;;
66384;SDS011;53426;55.872;37.462;2023-02-01T06:37:18;33.30;;;16.05;;
66384;SDS011;53426;55.872;37.462;2023-02-01T06:39:44;28.70;;;13.43;;
66384;SDS011;53426;55.872;37.462;2023-02-01T06:42:10;25.95;;;13.70;;
66384;SDS011;53426;55.872;37.462;2023-02-01T06:44:36;34.75;;;16.58;;
66384;SDS011;53426;55.872;37.462;2023-02-01T06:47:03;29.27;;;14.75;;
66384;SDS011;53426;55.872;37.462;2023-02-01T06:49:29;40.17;;;16.77;;
66384;SDS011;53426;55.872;37.462;2023-02-01T06:51:55;27.98;;;14.90;;
66384;SDS011;53426;55.872;37.462;2023-02-01T06:54:20;36.45;;;14.15;;
66384;SDS011;53426;55.872;37.462;2023-02-01T06:56:46;26.40;;;14.32;;
66384;SDS011;53426;55.872;37.462;2023-02-01T06:59:12;27.15;;;13.00;;
66384;SDS011;53426;55.872;37.462;2023-02-01T07:01:38;39.20;;;15.23;;
66384;SDS011;53426;55.872;37.462;2023-02-01T07:04:03;29.77;;;13.93;;
66384;SDS011;53426;55.872;37.462;2023-02-01T07:06:29;33.60;;;14.68;;
66384;SDS011;53426;55.872;37.462;2023-02-01T07:08:55;27.40;;;13.82;;
66384;SDS011;53426;55.872;37.462;2023-02-01T07:11:22;28.55;;;13.95;;
66384;SDS011;53426;55.872;37.462;2023-02-01T07:13:49;36.28;;;14.57;;
66384;SDS011;53426;55.872;37.462;2023-02-01T07:16:17;29.88;;;14.85;;
66384;SDS011;53426;55.872;37.462;2023-02-01T07:18:44;34.22;;;14.90;;
66384;SDS011;53426;55.872;37.462;2023-02-01T07:21:11;27.08;;;14.55;;
66384;SDS011;53426;55.872;37.462;2023-02-01T07:23:37;26.67;;;15.05;;
66384;SDS011;53426;55.872;37.462;2023-02-01T07:26:04;41.35;;;14.48;;
66384;SDS011;53426;55.872;37.462;2023-02-01T07:31:31;35.67;;;14.65;;
66384;SDS011;53426;55.872;37.462;2023-02-01T07:33:57;30.50;;;14.07;;
66384;SDS011;53426;55.872;37.462;2023-02-01T07:36:23;29.42;;;14.48;;
66384;SDS011;53426;55.872;37.462;2023-02-01T07:38:50;35.88;;;15.43;;
66384;SDS011;53426;55.872;37.462;2023-02-01T07:41:17;30.90;;;14.70;;
66384;SDS011;53426;55.872;37.462;2023-02-01T07:43:43;33.97;;;16.17;;
66384;SDS011;53426;55.872;37.462;2023-02-01T07:46:10;31.70;;;15.63;;
66384;SDS011;53426;55.872;37.462;2023-02-01T07:48:36;31.15;;;14.18;;
66384;SDS011;53426;55.872;37.462;2023-02-01T07:51:03;31.25;;;15.05;;
66384;SDS011;53426;55.872;37.462;2023-02-01T07:53:31;35.58;;;15.50;;
66384;SDS011;53426;55.872;37.462;2023-02-01T07:55:58;28.92;;;14.43;;
66384;SDS011;53426;55.872;37.462;2023-02-01T07:58:25;33.65;;;14.45;;
66384;SDS011;53426;55.872;37.462;2023-02-01T08:00:52;27.98;;;14.45;;
66384;SDS011;53426;55.872;37.462;2023-02-01T08:03:37;30.85;;;15.00;;
66384;SDS011;53426;55.872;37.462;2023-02-01T08:06:04;30.23;;;14.40;;
66384;SDS011;53426;55.872;37.462;2023-02-01T08:08:30;36.35;;;16.02;;
66384;SDS011;53426;55.872;37.462;2023-02-01T08:10:59;32.33;;;14.05;;
66384;SDS011;53426;55.872;37.462;2023-02-01T08:13:26;29.23;;;13.63;;
66384;SDS011;53426;55.872;37.462;2023-02-01T08:15:57;26.83;;;14.15;;
66384;SDS011;53426;55.872;37.462;2023-02-01T08:18:31;28.95;;;12.98;;
66384;SDS011;53426;55.872;37.462;2023-02-01T08:23:49;30.85;;;14.30;;
66384;SDS011;53426;55.872;37.462;2023-02-01T08:26:20;21.27;;;11.45;;
66384;SDS011;53426;55.872;37.462;2023-02-01T08:28:49;35.20;;;13.73;;
66384;SDS011;53426;55.872;37.462;2023-02-01T08:31:20;26.15;;;14.23;;
66384;SDS011;53426;55.872;37.462;2023-02-01T08:33:49;31.02;;;14.30;;
66384;SDS011;53426;55.872;37.462;2023-02-01T08:36:16;25.30;;;14.20;;
66384;SDS011;53426;55.872;37.462;2023-02-01T08:38:43;25.00;;;13.73;;
66384;SDS011;53426;55.872;37.462;2023-02-01T08:41:09;26.00;;;13.88;;
66384;SDS011;53426;55.872;37.462;2023-02-01T08:43:37;25.27;;;13.25;;
66384;SDS011;53426;55.872;37.462;2023-02-01T08:46:04;38.78;;;14.15;;
66384;SDS011;53426;55.872;37.462;2023-02-01T08:48:31;28.90;;;14.70;;
66384;SDS011;53426;55.872;37.462;2023-02-01T08:51:00;28.95;;;13.88;;
66384;SDS011;53426;55.872;37.462;2023-02-01T08:53:30;36.63;;;14.43;;
66384;SDS011;53426;55.872;37.462;2023-02-01T08:55:58;28.40;;;14.98;;
66384;SDS011;53426;55.872;37.462;2023-02-01T08:58:24;28.10;;;15.48;;
66384;SDS011;53426;55.872;37.462;2023-02-01T09:00:50;29.75;;;14.98;;
66384;SDS011;53426;55.872;37.462;2023-02-01T09:03:16;36.70;;;15.40;;
66384;SDS011;53426;55.872;37.462;2023-02-01T09:05:44;30.98;;;15.18;;
66384;SDS011;53426;55.872;37.462;2023-02-01T09:08:11;30.27;;;15.15;;
66384;SDS011;53426;55.872;37.462;2023-02-01T09:10:41;28.75;;;14.68;;
66384;SDS011;53426;55.872;37.462;2023-02-01T09:13:07;32.72;;;12.93;;
66384;SDS011;53426;55.872;37.462;2023-02-01T09:15:34;22.58;;;13.30;;
66384;SDS011;53426;55.872;37.462;2023-02-01T09:18:00;26.58;;;15.30;;
66384;SDS011;53426;55.872;37.462;2023-02-01T09:20:27;28.65;;;14.48;;
66384;SDS011;53426;55.872;37.462;2023-02-01T09:22:54;24.48;;;14.32;;
66384;SDS011;53426;55.872;37.462;2023-02-01T09:25:22;27.88;;;15.65;;
66384;SDS011;53426;55.872;37.462;2023-02-01T09:27:48;32.53;;;14.38;;
66384;SDS011;53426;55.872;37.462;2023-02-01T09:30:14;29.15;;;15.10;;
66384;SDS011;53426;55.872;37.462;2023-02-01T09:32:40;32.35;;;14.30;;
66384;SDS011;53426;55.872;37.462;2023-02-01T09:35:06;24.52;;;14.25;;
66384;SDS011;53426;55.872;37.462;2023-02-01T09:37:32;22.50;;;11.85;;
66384;SDS011;53426;55.872;37.462;2023-02-01T09:39:58;29.92;;;14.13;;
66384;SDS011;53426;55.872;37.462;2023-02-01T09:47:56;36.15;;;15.25;;
66384;SDS011;53426;55.872;37.462;2023-02-01T09:53:04;25.50;;;15.10;;
66384;SDS011;53426;55.872;37.462;2023-02-01T09:55:38;32.17;;;15.52;;
66384;SDS011;53426;55.872;37.462;2023-02-01T09:58:09;31.98;;;15.02;;
66384;SDS011;53426;55.872;37.462;2023-02-01T10:00:44;24.05;;;14.73;;
66384;SDS011;53426;55.872;37.462;2023-02-01T10:03:24;28.27;;;14.48;;
66384;SDS011;53426;55.872;37.462;2023-02-01T10:08:39;32.40;;;15.82;;
66384;SDS011;53426;55.872;37.462;2023-02-01T10:16:57;28.55;;;14.88;;
66384;SDS011;53426;55.872;37.462;2023-02-01T10:19:48;29.83;;;15.52;;
66384;SDS011;53426;55.872;37.462;2023-02-01T10:22:52;24.35;;;13.65;;
66384;SDS011;53426;55.872;37.462;2023-02-01T10:28:22;25.35;;;13.00;;
66384;SDS011;53426;55.872;37.462;2023-02-01T10:30:52;25.33;;;14.05;;
66384;SDS011;53426;55.872;37.462;2023-02-01T10:36:42;19.55;;;11.35;;
66384;SDS011;53426;55.872;37.462;2023-02-01T10:39:14;22.85;;;13.07;;
66384;SDS011;53426;55.872;37.462;2023-02-01T10:41:41;25.45;;;13.70;;
66384;SDS011;53426;55.872;37.462;2023-02-01T10:44:11;22.10;;;12.70;;
66384;SDS011;53426;55.872;37.462;2023-02-01T10:46:40;22.85;;;14.18;;
66384;SDS011;53426;55.872;37.462;2023-02-01T10:49:10;25.70;;;13.40;;
66384;SDS011;53426;55.872;37.462;2023-02-01T10:52:02;20.65;;;12.18;;
66384;SDS011;53426;55.872;37.462;2023-02-01T10:54:43;27.38;;;13.88;;
66384;SDS011;53426;55.872;37.462;2023-02-01T10:57:11;26.02;;;13.10;;
66384;SDS011;53426;55.872;37.462;2023-02-01T10:59:58;20.25;;;12.18;;
66384;SDS011;53426;55.872;37.462;2023-02-01T11:02:44;19.17;;;11.23;;
66384;SDS011;53426;55.872;37.462;2023-02-01T11:05:10;19.23;;;11.65;;
66384;SDS011;53426;55.872;37.462;2023-02-01T11:07:38;21.60;;;12.32;;
66384;SDS011;53426;55.872;37.462;2023-02-01T11:10:33;22.23;;;12.50;;
66384;SDS011;53426;55.872;37.462;2023-02-01T11:13:01;20.45;;;12.43;;
66384;SDS011;53426;55.872;37.462;2023-02-01T11:15:29;18.33;;;12.02;;
66384;SDS011;53426;55.872;37.462;2023-02-01T11:17:55;21.60;;;13.27;;
66384;SDS011;53426;55.872;37.462;2023-02-01T11:22:56;19.40;;;12.07;;
66384;SDS011;53426;55.872;37.462;2023-02-01T11:25:23;19.15;;;12.18;;
66384;SDS011;53426;55.872;37.462;2023-02-01T11:27:51;19.27;;;12.27;;
66384;SDS011;53426;55.872;37.462;2023-02-01T11:30:41;21.48;;;12.88;;
66384;SDS011;53426;55.872;37.462;2023-02-01T11:33:09;26.05;;;13.43;;
66384;SDS011;53426;55.872;37.462;2023-02-01T11:35:40;21.95;;;12.60;;
66384;SDS011;53426;55.872;37.462;2023-02-01T11:38:12;20.63;;;13.40;;
66384;SDS011;53426;55.872;37.462;2023-02-01T11:40:45;23.42;;;13.25;;
66384;SDS011;53426;55.872;37.462;2023-02-01T11:45:54;21.58;;;13.15;;
66384;SDS011;53426;55.872;37.462;2023-02-01T11:48:26;19.17;;;12.57;;
66384;SDS011;53426;55.872;37.462;2023-02-01T12:07:49;19.80;;;13.10;;
66384;SDS011;53426;55.872;37.462;2023-02-01T12:23:42;17.75;;;10.93;;
66384;SDS011;53426;55.872;37.462;2023-02-01T12:35:01;21.65;;;13.23;;
66384;SDS011;53426;55.872;37.462;2023-02-01T12:42:40;23.67;;;15.18;;
66384;SDS011;53426;55.872;37.462;2023-02-01T12:45:25;26.02;;;14.20;;
66384;SDS011;53426;55.872;37.462;2023-02-01T12:47:59;22.08;;;13.55;;
66384;SDS011;53426;55.872;37.462;2023-02-01T12:50:54;25.08;;;14.30;;
66384;SDS011;53426;55.872;37.462;2023-02-01T12:53:35;26.42;;;14.75;;
66384;SDS011;53426;55.872;37.462;2023-02-01T12:56:11;26.50;;;15.40;;
66384;SDS011;53426;55.872;37.462;2023-02-01T12:58:48;25.98;;;15.63;;
66384;SDS011;53426;55.872;37.462;2023-02-01T13:06:51;25.33;;;14.63;;
66384;SDS011;53426;55.872;37.462;2023-02-01T13:12:15;26.55;;;13.98;;
66384;SDS011;53426;55.872;37.462;2023-02-01T13:14:54;23.85;;;13.18;;
66384;SDS011;53426;55.872;37.462;2023-02-01T13:17:29;20.60;;;11.73;;
66384;SDS011;53426;55.872;37.462;2023-02-01T13:25:57;20.20;;;13.25;;
66384;SDS011;53426;55.872;37.462;2023-02-01T13:39:47;25.25;;;13.45;;
66384;SDS011;53426;55.872;37.462;2023-02-01T13:42:25;23.10;;;13.20;;
66384;SDS011;53426;55.872;37.462;2023-02-01T13:45:51;25.30;;;12.02;;
66384;SDS011;53426;55.872;37.462;2023-02-01T13:48:21;22.67;;;13.55;;
66384;SDS011;53426;55.872;37.462;2023-02-01T13:50:55;26.27;;;12.68;;
66384;SDS011;53426;55.872;37.462;2023-02-01T13:54:05;22.73;;;12.20;;
66384;SDS011;53426;55.872;37.462;2023-02-01T13:56:17;19.33;;;11.65;;
66384;SDS011;53426;55.872;37.462;2023-02-01T13:58:46;18.98;;;11.23;;
66384;SDS011;53426;55.872;37.462;2023-02-01T14:04:04;15.23;;;9.77;;
66384;SDS011;53426;55.872;37.462;2023-02-01T14:11:40;17.52;;;11.38;;
66384;SDS011;53426;55.872;37.462;2023-02-01T14:19:24;17.10;;;9.93;;
66384;SDS011;53426;55.872;37.462;2023-02-01T14:21:57;17.50;;;11.27;;
66384;SDS011;53426;55.872;37.462;2023-02-01T14:24:27;17.70;;;10.80;;
66384;SDS011;53426;55.872;37.462;2023-02-01T14:26:56;19.48;;;12.63;;
66384;SDS011;53426;55.872;37.462;2023-02-01T14:29:29;18.67;;;11.70;;
66384;SDS011;53426;55.872;37.462;2023-02-01T14:32:11;16.52;;;10.43;;
66384;SDS011;53426;55.872;37.462;2023-02-01T14:42:57;18.85;;;10.65;;
66384;SDS011;53426;55.872;37.462;2023-02-01T14:47:48;18.98;;;10.98;;
66384;SDS011;53426;55.872;37.462;2023-02-01T14:52:47;13.82;;;9.63;;
66384;SDS011;53426;55.872;37.462;2023-02-01T14:55:23;17.05;;;9.30;;
66384;SDS011;53426;55.872;37.462;2023-02-01T14:58:05;17.45;;;10.35;;
66384;SDS011;53426;55.872;37.462;2023-02-01T15:00:46;16.15;;;9.75;;
66384;SDS011;53426;55.872;37.462;2023-02-01T15:03:23;15.00;;;9.25;;
66384;SDS011;53426;55.872;37.462;2023-02-01T15:06:00;18.50;;;11.05;;
66384;SDS011;53426;55.872;37.462;2023-02-01T15:08:33;14.85;;;7.80;;
66384;SDS011;53426;55.872;37.462;2023-02-01T15:11:06;17.83;;;10.63;;
66384;SDS011;53426;55.872;37.462;2023-02-01T15:13:39;15.45;;;9.55;;
66384;SDS011;53426;55.872;37.462;2023-02-01T15:16:24;13.95;;;9.15;;
66384;SDS011;53426;55.872;37.462;2023-02-01T15:18:50;15.93;;;9.77;;
66384;SDS011;53426;55.872;37.462;2023-02-01T15:21:31;14.48;;;10.10;;
66384;SDS011;53426;55.872;37.462;2023-02-01T15:24:09;16.92;;;8.90;;
66384;SDS011;53426;55.872;37.462;2023-02-01T15:26:36;16.63;;;7.82;;
66384;SDS011;53426;55.872;37.462;2023-02-01T15:29:02;18.88;;;10.57;;
66384;SDS011;53426;55.872;37.462;2023-02-01T15:31:36;20.00;;;9.77;;
66384;SDS011;53426;55.872;37.462;2023-02-01T15:34:08;11.60;;;8.15;;
66384;SDS011;53426;55.872;37.462;2023-02-01T15:36:34;15.57;;;10.00;;
66384;SDS011;53426;55.872;37.462;2023-02-01T15:39:23;17.60;;;10.70;;
66384;SDS011;53426;55.872;37.462;2023-02-01T15:41:55;16.45;;;10.63;;
66384;SDS011;53426;55.872;37.462;2023-02-01T15:44:28;16.10;;;10.30;;
66384;SDS011;53426;55.872;37.462;2023-02-01T15:49:51;17.60;;;10.40;;
66384;SDS011;53426;55.872;37.462;2023-02-01T15:52:39;12.57;;;8.30;;
66384;SDS011;53426;55.872;37.462;2023-02-01T15:55:16;15.27;;;10.18;;
66384;SDS011;53426;55.872;37.462;2023-02-01T15:57:45;15.55;;;10.20;;
66384;SDS011;53426;55.872;37.462;2023-02-01T16:05:33;17.77;;;9.77;;
66384;SDS011;53426;55.872;37.462;2023-02-01T16:08:13;16.75;;;10.00;;
66384;SDS011;53426;55.872;37.462;2023-02-01T16:11:21;12.27;;;7.93;;
66384;SDS011;53426;55.872;37.462;2023-02-01T16:13:56;13.90;;;9.88;;
66384;SDS011;53426;55.872;37.462;2023-02-01T16:16:23;17.48;;;10.40;;
66384;SDS011;53426;55.872;37.462;2023-02-01T16:18:49;15.65;;;8.77;;
66384;SDS011;53426;55.872;37.462;2023-02-01T16:21:16;18.85;;;10.98;;
66384;SDS011;53426;55.872;37.462;2023-02-01T16:23:42;16.58;;;10.05;;
66384;SDS011;53426;55.872;37.462;2023-02-01T16:26:08;14.07;;;8.48;;
66384;SDS011;53426;55.872;37.462;2023-02-01T16:28:33;17.77;;;10.98;;
66384;SDS011;53426;55.872;37.462;2023-02-01T16:30:59;17.15;;;10.88;;
66384;SDS011;53426;55.872;37.462;2023-02-01T16:33:26;22.35;;;10.77;;
66384;SDS011;53426;55.872;37.462;2023-02-01T16:35:56;15.43;;;9.98;;
66384;SDS011;53426;55.872;37.462;2023-02-01T16:38:27;18.48;;;9.70;;
66384;SDS011;53426;55.872;37.462;2023-02-01T16:40:56;18.35;;;10.27;;
66384;SDS011;53426;55.872;37.462;2023-02-01T16:43:24;16.88;;;9.35;;
66384;SDS011;53426;55.872;37.462;2023-02-01T16:45:53;17.27;;;9.43;;
66384;SDS011;53426;55.872;37.462;2023-02-01T16:48:28;17.10;;;10.32;;
66384;SDS011;53426;55.872;37.462;2023-02-01T16:51:03;16.67;;;10.10;;
66384;SDS011;53426;55.872;37.462;2023-02-01T16:53:34;21.45;;;12.77;;
66384;SDS011;53426;55.872;37.462;2023-02-01T16:56:01;17.67;;;10.80;;
66384;SDS011;53426;55.872;37.462;2023-02-01T16:58:30;18.33;;;11.65;;
66384;SDS011;53426;55.872;37.462;2023-02-01T17:01:01;18.80;;;11.43;;
66384;SDS011;53426;55.872;37.462;2023-02-01T17:03:33;18.95;;;11.30;;
66384;SDS011;53426;55.872;37.462;2023-02-01T17:05:59;22.45;;;12.30;;
66384;SDS011;53426;55.872;37.462;2023-02-01T17:08:30;18.23;;;11.02;;
66384;SDS011;53426;55.872;37.462;2023-02-01T17:11:00;21.13;;;12.00;;
66384;SDS011;53426;55.872;37.462;2023-02-01T17:13:31;20.08;;;12.02;;
66384;SDS011;53426;55.872;37.462;2023-02-01T17:15:59;20.65;;;12.00;;
66384;SDS011;53426;55.872;37.462;2023-02-01T17:18:29;23.17;;;11.07;;
66384;SDS011;53426;55.872;37.462;2023-02-01T17:20:59;22.60;;;12.63;;
66384;SDS011;53426;55.872;37.462;2023-02-01T17:23:27;20.58;;;12.50;;
66384;SDS011;53426;55.872;37.462;2023-02-01T17:25:54;29.00;;;13.13;;
66384;SDS011;53426;55.872;37.462;2023-02-01T17:28:24;23.05;;;12.15;;